createdAt,value
2022-09-15T00:02:25.067Z,14.41
2022-09-15T00:04:51.634Z,14.38
2022-09-15T00:07:18.188Z,14.39
2022-09-15T00:09:44.713Z,14.40
2022-09-15T00:12:11.167Z,14.36
2022-09-15T00:14:37.664Z,14.43
2022-09-15T00:17:04.415Z,14.43
2022-09-15T00:19:30.911Z,14.51
2022-09-15T00:21:57.343Z,14.55
2022-09-15T00:24:23.770Z,14.53
2022-09-15T00:26:50.296Z,14.57
2022-09-15T00:29:16.759Z,14.79
2022-09-15T00:31:43.216Z,14.99
2022-09-15T00:34:13.707Z,15.02
2022-09-15T00:36:40.608Z,15.05
2022-09-15T00:39:07.085Z,15.10
2022-09-15T00:41:33.922Z,14.92
2022-09-15T00:44:02.215Z,14.80
2022-09-15T00:46:33.075Z,14.69
2022-09-15T00:49:23.236Z,14.60
2022-09-15T00:51:49.658Z,14.61
2022-09-15T00:54:36.751Z,14.57
2022-09-15T00:57:08.486Z,14.56
2022-09-15T00:59:39.103Z,14.45
2022-09-15T01:02:12.112Z,14.44
2022-09-15T01:04:38.986Z,14.42
2022-09-15T01:07:10.918Z,14.41
2022-09-15T01:09:44.811Z,14.37
2022-09-15T01:12:11.462Z,14.33
2022-09-15T01:14:37.915Z,14.29
2022-09-15T01:17:07.352Z,14.38
2022-09-15T01:20:11.545Z,14.52
2022-09-15T01:22:52.993Z,14.61
2022-09-15T01:25:43.617Z,14.71
2022-09-15T01:28:44.479Z,14.78
2022-09-15T01:31:24.267Z,14.83
2022-09-15T01:34:07.813Z,14.89
2022-09-15T01:36:53.792Z,14.88
2022-09-15T01:39:32.190Z,14.97
2022-09-15T01:42:03.597Z,15.01
2022-09-15T01:44:35.163Z,15.08
2022-09-15T01:47:07.975Z,15.02
2022-09-15T01:49:42.781Z,15.01
2022-09-15T01:52:09.289Z,15.02
2022-09-15T01:54:42.419Z,14.98
2022-09-15T01:57:08.901Z,14.94
2022-09-15T01:59:35.466Z,14.96
2022-09-15T02:02:07.966Z,14.99
2022-09-15T02:04:41.472Z,15.03
2022-09-15T02:07:35.521Z,15.06
2022-09-15T02:10:11.500Z,14.96
2022-09-15T02:12:56.441Z,14.96
2022-09-15T02:15:30.288Z,14.94
2022-09-15T02:17:59.128Z,14.93
2022-09-15T02:20:49.339Z,14.91
2022-09-15T02:23:25.188Z,14.86
2022-09-15T02:25:57.113Z,14.84
2022-09-15T02:28:30.112Z,14.85
2022-09-15T02:30:58.682Z,14.87
2022-09-15T02:33:32.291Z,14.91
2022-09-15T02:36:00.124Z,14.92
2022-09-15T02:38:30.099Z,15.00
2022-09-15T02:40:57.094Z,14.99
2022-09-15T02:43:23.619Z,14.98
2022-09-15T02:45:50.768Z,14.98
2022-09-15T02:48:17.688Z,15.13
2022-09-15T02:50:44.140Z,15.15
2022-09-15T02:53:10.594Z,15.23
2022-09-15T02:55:37.091Z,15.14
2022-09-15T02:58:03.799Z,15.07
2022-09-15T03:00:31.187Z,15.12
2022-09-15T03:02:58.345Z,15.11
2022-09-15T03:05:29.996Z,15.11
2022-09-15T03:07:57.211Z,15.08
2022-09-15T03:10:25.745Z,15.01
2022-09-15T03:12:54.397Z,15.03
2022-09-15T03:15:23.872Z,14.99
2022-09-15T03:17:50.736Z,15.02
2022-09-15T03:20:20.933Z,15.02
2022-09-15T03:22:48.242Z,15.00
2022-09-15T03:25:15.784Z,15.01
2022-09-15T03:27:42.948Z,14.99
2022-09-15T03:30:11.068Z,15.04
2022-09-15T03:32:37.869Z,15.00
2022-09-15T03:35:05.329Z,14.99
2022-09-15T03:37:32.040Z,15.02
2022-09-15T03:39:58.849Z,14.97
2022-09-15T03:42:25.385Z,14.96
2022-09-15T03:44:51.857Z,14.87
2022-09-15T03:47:18.295Z,14.94
2022-09-15T03:49:44.765Z,14.95
2022-09-15T03:52:12.185Z,14.88
2022-09-15T03:54:38.647Z,14.96
2022-09-15T03:57:05.195Z,14.95
2022-09-15T03:59:31.654Z,14.99
2022-09-15T04:01:58.157Z,14.91
2022-09-15T04:04:24.683Z,14.94
2022-09-15T04:06:51.162Z,14.89
2022-09-15T04:09:20.267Z,14.96
2022-09-15T04:11:47.678Z,14.90
2022-09-15T04:14:14.208Z,14.89
2022-09-15T04:16:40.848Z,14.79
2022-09-15T04:19:07.537Z,14.86
2022-09-15T04:21:34.035Z,14.80
2022-09-15T04:24:01.232Z,14.79
2022-09-15T04:26:31.731Z,14.85
2022-09-15T04:29:03.643Z,14.84
2022-09-15T04:31:31.489Z,14.85
2022-09-15T04:33:58.215Z,14.76
2022-09-15T04:36:27.468Z,14.78
2022-09-15T04:38:55.414Z,14.84
2022-09-15T04:41:22.521Z,14.85
2022-09-15T04:43:49.530Z,14.83
2022-09-15T04:46:16.893Z,14.84
2022-09-15T04:48:45.462Z,14.81
2022-09-15T04:51:15.353Z,14.83
2022-09-15T04:53:42.309Z,14.81
2022-09-15T04:56:12.053Z,14.82
2022-09-15T04:58:41.054Z,14.90
2022-09-15T05:01:19.926Z,14.90
2022-09-15T05:03:46.895Z,14.85
2022-09-15T05:06:16.665Z,14.88
2022-09-15T05:08:43.506Z,14.97
2022-09-15T05:11:12.097Z,14.87
2022-09-15T05:13:40.248Z,14.85
2022-09-15T05:16:12.180Z,14.86
2022-09-15T05:18:39.794Z,14.89
2022-09-15T05:21:07.898Z,14.86
2022-09-15T05:23:35.903Z,14.78
2022-09-15T05:26:06.241Z,14.80
2022-09-15T05:28:34.413Z,14.76
2022-09-15T05:31:00.995Z,14.68
2022-09-15T05:33:27.723Z,14.67
2022-09-15T05:35:59.362Z,14.70
2022-09-15T05:38:28.417Z,14.73
2022-09-15T05:40:55.879Z,14.68
2022-09-15T05:43:22.543Z,14.66
2022-09-15T05:45:55.493Z,14.54
2022-09-15T05:48:22.093Z,14.64
2022-09-15T05:50:50.534Z,14.65
2022-09-15T05:53:17.226Z,14.73
2022-09-15T05:55:43.897Z,14.68
2022-09-15T05:58:10.929Z,14.65
2022-09-15T06:00:37.932Z,14.62
2022-09-15T06:03:04.639Z,14.55
2022-09-15T06:05:31.246Z,14.55
2022-09-15T06:07:57.750Z,14.51
2022-09-15T06:10:25.099Z,14.47
2022-09-15T06:12:55.179Z,14.63
2022-09-15T06:15:22.957Z,14.81
2022-09-15T06:17:49.752Z,14.98
2022-09-15T06:20:16.893Z,15.10
2022-09-15T06:22:43.357Z,15.18
2022-09-15T06:25:10.724Z,15.06
2022-09-15T06:27:37.359Z,15.01
2022-09-15T06:30:04.464Z,14.95
2022-09-15T06:32:31.044Z,14.89
2022-09-15T06:34:57.792Z,14.92
2022-09-15T06:37:24.244Z,14.90
2022-09-15T06:39:51.194Z,14.95
2022-09-15T06:42:17.878Z,14.95
2022-09-15T06:44:44.359Z,14.95
2022-09-15T06:47:15.299Z,14.99
2022-09-15T06:49:41.754Z,15.12
2022-09-15T06:52:08.478Z,15.08
2022-09-15T06:54:35.092Z,15.16
2022-09-15T06:57:01.540Z,15.16
2022-09-15T06:59:28.215Z,15.13
2022-09-15T07:01:55.661Z,15.22
2022-09-15T07:04:22.695Z,15.15
2022-09-15T07:06:50.437Z,15.18
2022-09-15T07:09:16.903Z,15.15
2022-09-15T07:11:43.372Z,15.23
2022-09-15T07:14:11.130Z,15.26
2022-09-15T07:16:38.311Z,15.26
2022-09-15T07:19:05.946Z,15.34
2022-09-15T07:21:33.756Z,15.35
2022-09-15T07:24:03.885Z,15.44
2022-09-15T07:26:33.944Z,15.51
2022-09-15T07:29:02.997Z,15.65
2022-09-15T07:31:32.314Z,15.78
2022-09-15T07:34:00.190Z,15.80
2022-09-15T07:36:27.190Z,15.83
2022-09-15T07:38:53.822Z,15.89
2022-09-15T07:41:23.857Z,15.99
2022-09-15T07:43:52.222Z,16.04
2022-09-15T07:46:20.455Z,16.08
2022-09-15T07:48:49.006Z,16.09
2022-09-15T07:51:16.608Z,16.13
2022-09-15T07:53:45.076Z,16.18
2022-09-15T07:56:12.007Z,16.22
2022-09-15T07:58:38.970Z,16.26
2022-09-15T08:01:11.208Z,16.30
2022-09-15T08:03:42.925Z,16.52
2022-09-15T08:06:10.683Z,16.62
2022-09-15T08:08:38.870Z,16.92
2022-09-15T08:11:13.061Z,16.97
2022-09-15T08:13:41.697Z,16.82
2022-09-15T08:16:10.866Z,16.63
2022-09-15T08:18:38.316Z,16.54
2022-09-15T08:21:10.958Z,16.56
2022-09-15T08:23:38.380Z,16.51
2022-09-15T08:26:13.814Z,16.54
2022-09-15T08:28:42.123Z,16.57
2022-09-15T08:31:11.717Z,16.55
2022-09-15T08:33:43.224Z,16.59
2022-09-15T08:36:12.142Z,16.71
2022-09-15T08:38:44.352Z,16.61
2022-09-15T08:41:21.567Z,16.63
2022-09-15T08:43:54.815Z,16.77
2022-09-15T08:46:28.057Z,17.13
2022-09-15T08:49:03.148Z,17.22
2022-09-15T08:51:42.065Z,17.07
2022-09-15T08:54:20.526Z,16.87
2022-09-15T08:56:48.568Z,16.76
2022-09-15T08:59:17.649Z,16.67
2022-09-15T09:02:27.033Z,16.58
2022-09-15T09:05:21.767Z,16.72
2022-09-15T09:07:51.309Z,16.71
2022-09-15T09:10:31.052Z,16.72
2022-09-15T09:13:07.654Z,16.87
2022-09-15T09:15:52.638Z,16.99
2022-09-15T09:18:33.185Z,17.19
2022-09-15T09:21:21.597Z,17.38
2022-09-15T09:23:57.209Z,17.38
2022-09-15T09:26:23.634Z,17.18
2022-09-15T09:28:57.933Z,17.25
2022-09-15T09:31:25.863Z,17.41
2022-09-15T09:34:02.141Z,17.48
2022-09-15T09:36:28.650Z,17.59
2022-09-15T09:38:56.139Z,17.55
2022-09-15T09:41:35.587Z,17.46
2022-09-15T09:44:12.824Z,17.38
2022-09-15T09:46:41.844Z,17.36
2022-09-15T09:49:18.821Z,17.44
2022-09-15T09:51:52.293Z,17.61
2022-09-15T09:54:21.583Z,17.73
2022-09-15T09:56:49.756Z,17.94
2022-09-15T09:59:39.298Z,18.12
2022-09-15T10:02:13.123Z,18.28
2022-09-15T10:04:45.048Z,18.42
2022-09-15T10:07:12.688Z,18.45
2022-09-15T10:09:39.276Z,18.38
2022-09-15T10:12:07.440Z,18.53
2022-09-15T10:14:42.160Z,18.58
2022-09-15T10:17:10.110Z,18.61
2022-09-15T10:19:58.031Z,18.55
2022-09-15T10:22:33.230Z,18.43
2022-09-15T10:25:01.773Z,18.41
2022-09-15T10:27:37.416Z,18.34
2022-09-15T10:30:24.416Z,18.29
2022-09-15T10:32:51.742Z,18.19
2022-09-15T10:35:19.770Z,18.15
2022-09-15T10:38:12.328Z,18.24
2022-09-15T10:41:23.453Z,18.51
2022-09-15T10:43:59.080Z,18.81
2022-09-15T10:46:39.459Z,18.69
2022-09-15T10:49:40.849Z,18.50
2022-09-15T10:52:29.292Z,18.14
2022-09-15T10:55:12.215Z,17.98
2022-09-15T10:58:17.191Z,17.78
2022-09-15T11:01:00.792Z,17.71
2022-09-15T11:03:42.360Z,17.70
2022-09-15T11:06:20.065Z,17.93
2022-09-15T11:09:07.001Z,18.04
2022-09-15T11:11:33.381Z,18.72
2022-09-15T11:14:29.830Z,18.79
2022-09-15T11:17:19.665Z,18.66
2022-09-15T11:20:10.215Z,18.45
2022-09-15T11:22:58.301Z,18.52
2022-09-15T11:25:30.246Z,18.72
2022-09-15T11:28:18.397Z,18.96
2022-09-15T11:30:56.169Z,19.06
2022-09-15T11:33:36.837Z,18.92
2022-09-15T11:36:09.765Z,19.12
2022-09-15T11:38:47.970Z,19.15
2022-09-15T11:41:38.794Z,19.83
2022-09-15T11:44:17.031Z,19.81
2022-09-15T11:47:02.255Z,19.45
2022-09-15T11:49:35.083Z,18.99
2022-09-15T11:52:22.651Z,18.49
2022-09-15T11:54:58.607Z,18.20
2022-09-15T11:57:30.483Z,17.91
2022-09-15T12:00:05.625Z,17.92
2022-09-15T12:02:36.959Z,18.03
2022-09-15T12:05:11.333Z,18.30
2022-09-15T12:07:45.935Z,18.50
2022-09-15T12:10:21.509Z,18.86
2022-09-15T12:12:51.437Z,19.02
2022-09-15T12:15:19.517Z,19.01
2022-09-15T12:18:01.329Z,18.95
2022-09-15T12:20:51.370Z,19.06
2022-09-15T12:23:32.808Z,18.81
2022-09-15T12:26:15.952Z,18.96
2022-09-15T12:29:04.353Z,18.91
2022-09-15T12:31:35.098Z,18.95
2022-09-15T12:34:04.159Z,18.97
2022-09-15T12:36:32.651Z,18.94
2022-09-15T12:39:00.856Z,19.05
2022-09-15T12:41:27.895Z,18.98
2022-09-15T12:44:02.444Z,18.81
2022-09-15T12:46:29.116Z,18.80
2022-09-15T12:49:01.732Z,18.95
2022-09-15T12:51:29.501Z,18.99
2022-09-15T12:54:04.786Z,18.69
2022-09-15T12:56:33.659Z,18.60
2022-09-15T12:59:06.745Z,18.43
2022-09-15T13:01:54.970Z,18.42
2022-09-15T13:04:51.192Z,18.59
2022-09-15T13:07:18.722Z,18.40
2022-09-15T13:10:04.746Z,18.25
2022-09-15T13:12:38.061Z,18.12
2022-09-15T13:15:07.655Z,18.09
2022-09-15T13:17:34.897Z,18.05
2022-09-15T13:20:14.947Z,18.02
2022-09-15T13:22:47.289Z,18.02
2022-09-15T13:25:14.693Z,18.25
2022-09-15T13:27:45.136Z,18.29
2022-09-15T13:30:20.892Z,18.37
2022-09-15T13:32:53.400Z,18.09
2022-09-15T13:35:30.559Z,18.09
2022-09-15T13:38:21.257Z,17.95
2022-09-15T13:41:10.143Z,17.95
2022-09-15T13:44:13.963Z,17.88
2022-09-15T13:47:18.000Z,17.75
2022-09-15T13:50:14.729Z,17.82
2022-09-15T13:53:20.799Z,17.89
2022-09-15T13:55:48.311Z,17.74
2022-09-15T14:01:07.112Z,17.74
2022-09-15T14:03:49.000Z,17.85
2022-09-15T14:06:19.779Z,17.91
2022-09-15T14:08:51.112Z,18.02
2022-09-15T14:11:23.699Z,17.84
2022-09-15T14:13:51.305Z,17.52
2022-09-15T14:16:24.269Z,17.07
2022-09-15T14:18:51.879Z,16.62
2022-09-15T14:21:24.296Z,16.47
2022-09-15T14:23:53.052Z,16.43
2022-09-15T14:26:22.760Z,16.56
2022-09-15T14:28:52.979Z,16.85
2022-09-15T14:31:31.710Z,16.88
2022-09-15T14:33:58.441Z,17.04
2022-09-15T14:36:31.866Z,17.24
2022-09-15T14:39:13.713Z,17.47
2022-09-15T14:41:40.222Z,17.58
2022-09-15T14:45:55.049Z,17.84
2022-09-15T14:47:25.673Z,17.88
2022-09-15T14:50:26.331Z,17.73
2022-09-15T14:53:10.550Z,17.60
2022-09-15T14:55:41.099Z,17.51
2022-09-15T14:58:17.977Z,17.33
2022-09-15T15:01:00.184Z,17.10
2022-09-15T15:03:32.913Z,17.12
2022-09-15T15:06:28.483Z,17.05
2022-09-15T15:09:30.428Z,16.86
2022-09-15T15:12:02.201Z,16.82
2022-09-15T15:14:28.990Z,16.86
2022-09-15T15:17:06.131Z,17.08
2022-09-15T15:19:42.591Z,17.22
2022-09-15T15:22:12.089Z,17.22
2022-09-15T15:24:43.994Z,17.25
2022-09-15T15:27:32.326Z,17.24
2022-09-15T15:30:26.656Z,17.18
2022-09-15T15:32:54.179Z,17.15
2022-09-15T15:35:21.262Z,17.01
2022-09-15T15:37:48.301Z,16.88
2022-09-15T15:40:19.451Z,16.85
2022-09-15T15:43:06.848Z,16.76
2022-09-15T15:45:36.043Z,16.52
2022-09-15T15:48:04.333Z,16.28
2022-09-15T15:50:32.592Z,16.20
2022-09-15T15:53:00.842Z,16.02
2022-09-15T15:55:41.759Z,15.97
2022-09-15T15:58:10.512Z,16.15
2022-09-15T16:00:51.144Z,16.17
2022-09-15T16:03:19.005Z,15.94
2022-09-15T16:05:48.460Z,15.97
2022-09-15T16:08:40.158Z,15.90
2022-09-15T16:11:10.073Z,15.87
2022-09-15T16:13:36.518Z,15.80
2022-09-15T16:16:13.874Z,15.74
2022-09-15T16:18:40.502Z,15.78
2022-09-15T16:21:07.005Z,15.65
2022-09-15T16:23:33.454Z,15.60
2022-09-15T16:25:59.869Z,15.56
2022-09-15T16:28:26.837Z,15.44
2022-09-15T16:30:53.387Z,15.47
2022-09-15T16:33:20.491Z,15.48
2022-09-15T16:35:56.004Z,15.41
2022-09-15T16:38:25.470Z,15.24
2022-09-15T16:40:52.296Z,15.25
2022-09-15T16:43:23.619Z,15.12
2022-09-15T16:45:51.346Z,15.01
2022-09-15T16:48:18.572Z,14.93
2022-09-15T16:50:56.009Z,14.81
2022-09-15T16:53:33.281Z,14.84
2022-09-15T16:55:59.784Z,14.83
2022-09-15T16:58:26.358Z,14.83
2022-09-15T17:00:53.646Z,14.73
2022-09-15T17:03:23.962Z,14.77
2022-09-15T17:05:55.332Z,14.80
2022-09-15T17:08:25.706Z,14.68
2022-09-15T17:10:53.178Z,14.71
2022-09-15T17:13:26.402Z,14.58
2022-09-15T17:15:56.125Z,14.51
2022-09-15T17:18:23.353Z,14.52
2022-09-15T17:20:50.961Z,14.50
2022-09-15T17:23:25.362Z,14.50
2022-09-15T17:25:53.858Z,14.48
2022-09-15T17:28:22.672Z,14.46
2022-09-15T17:30:57.054Z,14.44
2022-09-15T17:33:24.236Z,14.37
2022-09-15T17:35:51.196Z,14.32
2022-09-15T17:38:20.314Z,14.29
2022-09-15T17:40:47.878Z,14.33
2022-09-15T17:43:16.848Z,14.27
2022-09-15T17:45:43.716Z,14.37
2022-09-15T17:48:10.328Z,14.23
2022-09-15T17:50:38.125Z,14.28
2022-09-15T17:53:15.873Z,14.25
2022-09-15T17:55:42.518Z,14.10
2022-09-15T17:58:09.427Z,14.07
2022-09-15T18:00:38.273Z,13.97
2022-09-15T18:03:17.789Z,13.97
2022-09-15T18:05:44.286Z,13.87
2022-09-15T18:08:11.034Z,13.73
2022-09-15T18:10:37.614Z,13.66
2022-09-15T18:13:06.235Z,13.56
2022-09-15T18:15:35.100Z,13.54
2022-09-15T18:18:04.270Z,13.54
2022-09-15T18:20:33.107Z,13.54
2022-09-15T18:23:00.256Z,13.57
2022-09-15T18:25:30.978Z,13.56
2022-09-15T18:28:02.239Z,13.73
2022-09-15T18:30:31.508Z,13.70
2022-09-15T18:32:58.908Z,13.70
2022-09-15T18:35:25.958Z,13.60
2022-09-15T18:37:58.330Z,13.56
2022-09-15T18:40:27.033Z,13.45
2022-09-15T18:42:54.122Z,13.36
2022-09-15T18:45:22.197Z,13.32
2022-09-15T18:47:50.540Z,13.26
2022-09-15T18:50:20.301Z,13.27
2022-09-15T18:52:47.087Z,13.27
2022-09-15T18:55:16.588Z,13.20
2022-09-15T18:57:43.799Z,13.20
2022-09-15T19:00:14.408Z,13.21
2022-09-15T19:02:41.325Z,13.19
2022-09-15T19:05:11.271Z,13.25
2022-09-15T19:07:41.790Z,13.25
2022-09-15T19:10:10.854Z,13.28
2022-09-15T19:12:38.227Z,13.26
2022-09-15T19:15:10.655Z,13.23
2022-09-15T19:17:39.259Z,13.31
2022-09-15T19:20:08.299Z,13.28
2022-09-15T19:22:35.455Z,13.28
2022-09-15T19:25:02.381Z,13.23
2022-09-15T19:27:28.997Z,13.15
2022-09-15T19:29:55.571Z,13.04
2022-09-15T19:32:22.601Z,13.07
2022-09-15T19:34:49.792Z,13.07
2022-09-15T19:37:19.122Z,13.04
2022-09-15T19:39:46.496Z,13.11
2022-09-15T19:42:13.429Z,13.17
2022-09-15T19:44:41.478Z,13.21
2022-09-15T19:47:08.911Z,13.37
2022-09-15T19:49:35.607Z,13.38
2022-09-15T19:52:02.182Z,13.27
2022-09-15T19:54:30.483Z,13.17
2022-09-15T19:56:57.342Z,13.09
2022-09-15T19:59:28.696Z,12.94
2022-09-15T20:01:56.837Z,12.87
2022-09-15T20:04:23.409Z,12.78
2022-09-15T20:06:49.880Z,12.87
2022-09-15T20:09:16.749Z,12.79
2022-09-15T20:11:43.736Z,12.79
2022-09-15T20:14:10.236Z,12.75
2022-09-15T20:16:37.059Z,12.76
2022-09-15T20:19:04.889Z,12.75
2022-09-15T20:21:50.835Z,12.73
2022-09-15T20:24:19.624Z,12.73
2022-09-15T20:26:46.449Z,12.61
2022-09-15T20:29:13.324Z,12.65
2022-09-15T20:31:40.272Z,12.58
2022-09-15T20:34:06.814Z,12.58
2022-09-15T20:36:36.066Z,12.53
2022-09-15T20:39:05.255Z,12.48
2022-09-15T20:41:32.006Z,12.42
2022-09-15T20:43:58.656Z,12.29
2022-09-15T20:46:25.284Z,12.27
2022-09-15T20:48:52.627Z,12.21
2022-09-15T20:51:22.827Z,12.14
2022-09-15T20:53:52.771Z,12.12
2022-09-15T20:56:23.201Z,12.10
2022-09-15T20:58:49.661Z,12.12
2022-09-15T21:01:27.724Z,12.09
2022-09-15T21:03:57.491Z,12.00
2022-09-15T21:06:26.817Z,11.99
2022-09-15T21:08:54.906Z,11.98
2022-09-15T21:11:22.196Z,11.93
2022-09-15T21:13:49.266Z,11.94
2022-09-15T21:16:18.500Z,11.92
2022-09-15T21:18:45.679Z,11.86
2022-09-15T21:21:18.682Z,11.90
2022-09-15T21:23:48.191Z,11.90
2022-09-15T21:26:17.289Z,11.88
2022-09-15T21:28:44.910Z,11.85
2022-09-15T21:31:14.945Z,11.86
2022-09-15T21:33:41.959Z,11.83
2022-09-15T21:36:09.999Z,11.84
2022-09-15T21:38:40.514Z,11.84
2022-09-15T21:41:09.337Z,11.91
2022-09-15T21:43:38.144Z,11.89
2022-09-15T21:46:06.970Z,11.93
2022-09-15T21:48:34.953Z,11.98
2022-09-15T21:51:03.106Z,11.96
2022-09-15T21:53:30.023Z,12.01
2022-09-15T21:56:00.219Z,12.01
2022-09-15T21:58:27.180Z,11.99
2022-09-15T22:00:53.841Z,11.99
2022-09-15T22:03:20.867Z,11.91
2022-09-15T22:05:47.964Z,11.96
2022-09-15T22:08:16.191Z,11.93
2022-09-15T22:10:44.340Z,11.94
2022-09-15T22:13:11.840Z,12.04
2022-09-15T22:15:38.505Z,12.03
2022-09-15T22:18:05.135Z,12.00
2022-09-15T22:20:31.594Z,12.02
2022-09-15T22:23:01.376Z,12.07
2022-09-15T22:25:28.969Z,12.12
2022-09-15T22:27:55.513Z,12.06
2022-09-15T22:30:22.022Z,12.07
2022-09-15T22:32:48.526Z,12.06
2022-09-15T22:35:15.390Z,12.01
2022-09-15T22:37:41.827Z,11.92
2022-09-15T22:40:09.523Z,11.99
2022-09-15T22:42:36.267Z,11.93
2022-09-15T22:45:03.495Z,11.88
2022-09-15T22:47:32.441Z,11.81
2022-09-15T22:49:58.923Z,11.79
2022-09-15T22:52:25.365Z,11.76
2022-09-15T22:54:51.975Z,11.74
2022-09-15T22:57:18.454Z,11.70
2022-09-15T22:59:44.892Z,11.71
2022-09-15T23:02:11.452Z,11.65
2022-09-15T23:04:38.352Z,11.66
2022-09-15T23:07:05.476Z,11.76
2022-09-15T23:09:31.933Z,11.95
2022-09-15T23:11:58.502Z,12.02
2022-09-15T23:14:25.276Z,12.11
2022-09-15T23:16:51.872Z,12.11
2022-09-15T23:19:18.455Z,12.00
2022-09-15T23:21:44.963Z,11.93
2022-09-15T23:24:12.564Z,11.89
2022-09-15T23:26:39.146Z,11.89
2022-09-15T23:29:05.625Z,11.86
2022-09-15T23:31:32.180Z,11.89
2022-09-15T23:33:58.654Z,11.84
2022-09-15T23:36:25.112Z,11.80
2022-09-15T23:38:51.549Z,11.64
2022-09-15T23:41:18.560Z,11.57
2022-09-15T23:43:45.995Z,11.57
2022-09-15T23:46:12.618Z,11.49
2022-09-15T23:48:39.356Z,11.50
2022-09-15T23:51:06.008Z,11.52
2022-09-15T23:53:32.623Z,11.48
2022-09-15T23:55:59.805Z,11.49
2022-09-15T23:58:26.456Z,11.46
